Portada
METAR-TAF:

METAR-TAF

Aeroports :

Teheran, Iran

latitud: 35-41N, longitud: 051-21E, altitud: 1204 m

Observació

L'informe es va fer fa 26 minuts, a les 04:30 UTC
Vent 14 kt del Oest
Temperatura 27°C
Humitat 23%
Pressió 1016 hPa
Visibilitat 10 km o més
sense núvols per sota de 1500 mi sense presència de cumulonimbus.

METAR: OIII 060430Z 27014KT CAVOK 27/04 Q1015 A2999

Hora: 09:26 (04:56 UTC)

Pronòstic

L'informe es va fer fa 5 hores i 46 minuts, a les 23:10 UTC
Pronòstic vàlid del 06 a les 00 UTC al 07 a les 06 UTC
Vent 8 kt del Nord/Nord-Oest
Visibilitat: 8000 m
Temporalment
l' 06 a les 09 UTC al 06 a les 18 UTC
Vent 18 kt del Oest

TAF: OIII 052310Z 0600/0706 33008KT 8000 NSC TEMPO 0609/0618 26018KT

Observacions i pronòstics meteorològics de més de 4000 aeroports (METAR i TAF).

Les estacions disponibles són els punts grocs i vermells al mapa.

Posi el ratolí al punt desitjat per veure el nom de l'estació.

Feu clic per veure les observacions i els pronòstics meteorològics.

Per canviar el mapa: feu clic els botons verds amb una creu de color negre per apropar; al botó verd amb un guió per allunyar la imatge; o en les fletxes verdes per a mapes adjacents.


METAR-TAF: